Hauptseite
METAR-TAF:

METAR-TAF

Flughäfen :

Khorramabad, Iran

Breite: 33-26-11N, Länge: 048-17-09E, Höhe: 1155 m

Beobachtung

Neuester Wetterbericht von vor 8 Stunden und 13 Minuten, um 14:00 UTC
Wind 4 kt aus Ost/Südost
Temperatur 17°C
Luftfeuchtigkeit 29%
Luftdruck 1016 hPa
Sichtweite 10 km oder mehr
Leicht bewölkt in der Höhe von 4500 ft
Aufgelockert bewölkt in der Höhe von 9000 ft
Durchbrochene Bewölkung in der Höhe von 18000 ft

METAR: OICK 011400Z 12004KT 9999 FEW045 SCT090 BKN180 17/M01 Q1016

Zeit: 01:43 (22:13 UTC)


TAF: fehlend

Wetterbeobachtungen und Prognosen von mehr als 4000 Flughäfen (METAR und TAF Bericht).

Die verfügbaren Stationen werden durch gelbe und rote Markierungen auf der Karte dargestellt.

Führen Sie die Maus auf sie, um den Namen der Station zu sehen.

Darauf klicken, um die Beobachtung von Wetterbeobachtungen und Prognosen zu sehen.

Um die Karte zu ändern : klicken Sie auf den grünen Tasten mit einem schwarzen Kreuz Zum Vergrößern, auf den grünen Button mit einem Gedankenstrich zu verkleinern, oder auf die grünen Pfeile für benachbarte Karten.


METAR-TAF: